createdAt,value
2019-06-20T00:02:19.675Z,72.10
2019-06-20T00:04:49.073Z,72.10
2019-06-20T00:07:16.802Z,72.00
2019-06-20T00:09:44.544Z,72.00
2019-06-20T00:12:12.174Z,72.30
2019-06-20T00:14:41.747Z,72.70
2019-06-20T00:17:09.465Z,72.80
2019-06-20T00:19:36.997Z,72.50
2019-06-20T00:22:04.652Z,72.60
2019-06-20T00:24:32.277Z,72.70
2019-06-20T00:27:02.755Z,72.90
2019-06-20T00:29:30.395Z,73.20
2019-06-20T00:31:58.012Z,73.20
2019-06-20T00:34:25.647Z,73.30
2019-06-20T00:36:53.237Z,73.30
2019-06-20T00:39:20.878Z,73.40
2019-06-20T00:41:48.503Z,73.50
2019-06-20T00:44:16.161Z,73.80
2019-06-20T00:46:43.765Z,73.70
2019-06-20T00:49:11.376Z,73.50
2019-06-20T00:51:39.107Z,73.50
2019-06-20T00:54:06.708Z,73.30
2019-06-20T00:56:34.334Z,73.10
2019-06-20T00:59:02.009Z,73.10
2019-06-20T01:01:29.749Z,73.10
2019-06-20T01:03:57.339Z,73.40
2019-06-20T01:06:25.079Z,73.40
2019-06-20T01:08:52.798Z,73.60
2019-06-20T01:11:22.205Z,73.40
2019-06-20T01:13:52.897Z,73.50
2019-06-20T01:16:20.822Z,73.60
2019-06-20T01:18:50.243Z,73.70
2019-06-20T01:21:19.183Z,73.50
2019-06-20T01:23:46.762Z,73.50
2019-06-20T01:26:14.351Z,73.30
2019-06-20T01:28:41.969Z,73.20
2019-06-20T01:31:09.579Z,73.20
2019-06-20T01:33:37.321Z,73.20
2019-06-20T01:36:04.908Z,73.00
2019-06-20T01:38:32.643Z,73.20
2019-06-20T01:41:05.852Z,72.80
2019-06-20T01:43:31.141Z,72.50
2019-06-20T01:45:58.747Z,73.20
2019-06-20T01:50:57.499Z,72.50
2019-06-20T01:53:25.204Z,72.50
2019-06-20T01:55:52.847Z,72.40
2019-06-20T01:58:20.445Z,72.50
2019-06-20T02:00:48.873Z,72.70
2019-06-20T02:03:16.989Z,72.70
2019-06-20T02:05:44.995Z,72.70
2019-06-20T02:08:12.804Z,72.60
2019-06-20T02:10:40.415Z,72.30
2019-06-20T02:13:08.006Z,72.30
2019-06-20T02:15:35.618Z,71.80
2019-06-20T02:18:03.635Z,71.80
2019-06-20T02:20:35.238Z,72.00
2019-06-20T02:23:02.997Z,71.80
2019-06-20T02:25:30.675Z,71.90
2019-06-20T02:27:58.263Z,71.90
2019-06-20T02:30:25.957Z,71.90
2019-06-20T02:32:53.582Z,71.80
2019-06-20T02:35:21.195Z,71.80
2019-06-20T02:37:48.793Z,71.90
2019-06-20T02:40:16.496Z,71.80
2019-06-20T02:42:44.104Z,71.70
2019-06-20T02:45:12.229Z,72.00
2019-06-20T02:47:39.838Z,72.00
2019-06-20T02:50:08.231Z,72.00
2019-06-20T02:52:35.853Z,71.90
2019-06-20T02:55:04.293Z,71.90
2019-06-20T02:57:31.957Z,71.80
2019-06-20T02:59:59.583Z,70.80
2019-06-20T03:02:27.221Z,71.50
2019-06-20T03:04:54.835Z,71.30
2019-06-20T03:07:22.415Z,71.10
2019-06-20T03:09:50.025Z,71.30
2019-06-20T03:12:17.691Z,71.70
2019-06-20T03:14:45.955Z,71.80
2019-06-20T03:17:13.592Z,72.00
2019-06-20T03:19:41.203Z,72.00
2019-06-20T03:22:08.803Z,71.90
2019-06-20T03:24:36.403Z,72.00
2019-06-20T03:27:04.130Z,72.10
2019-06-20T03:29:31.714Z,71.90
2019-06-20T03:31:59.321Z,72.00
2019-06-20T03:34:26.971Z,72.20
2019-06-20T03:36:54.574Z,72.20
2019-06-20T03:39:22.209Z,72.10
2019-06-20T03:41:49.827Z,72.20
2019-06-20T03:44:17.445Z,72.30
2019-06-20T03:46:45.026Z,72.40
2019-06-20T03:49:12.631Z,72.50
2019-06-20T03:51:40.228Z,72.20
2019-06-20T03:54:07.847Z,72.30
2019-06-20T03:56:36.532Z,72.30
2019-06-20T03:59:04.187Z,72.30
2019-06-20T04:01:31.797Z,72.20
2019-06-20T04:04:00.478Z,72.20
2019-06-20T04:06:28.082Z,72.20
2019-06-20T04:08:55.685Z,72.10
2019-06-20T04:11:23.295Z,72.20
2019-06-20T04:13:50.939Z,72.00
2019-06-20T04:16:18.573Z,72.20
2019-06-20T04:18:46.145Z,72.20
2019-06-20T04:21:13.841Z,72.20
2019-06-20T04:23:41.528Z,72.30
2019-06-20T04:26:09.235Z,72.60
2019-06-20T04:28:36.875Z,72.70
2019-06-20T04:31:04.480Z,72.80
2019-06-20T04:33:32.032Z,72.90
2019-06-20T04:35:59.603Z,73.00
2019-06-20T04:38:27.200Z,73.10
2019-06-20T04:40:54.838Z,73.10
2019-06-20T04:43:22.463Z,73.10
2019-06-20T04:46:05.837Z,73.20
2019-06-20T04:48:33.432Z,73.40
2019-06-20T04:51:01.037Z,73.50
2019-06-20T04:53:28.685Z,73.60
2019-06-20T04:55:56.309Z,73.80
2019-06-20T04:58:23.951Z,73.80
2019-06-20T05:00:51.615Z,73.90
2019-06-20T05:03:19.183Z,73.90
2019-06-20T05:05:46.768Z,73.60
2019-06-20T05:08:14.393Z,73.70
2019-06-20T05:10:42.037Z,73.70
2019-06-20T05:13:09.649Z,73.60
2019-06-20T05:15:51.518Z,73.60
2019-06-20T05:18:06.678Z,73.70
2019-06-20T05:20:34.328Z,73.90
2019-06-20T05:23:01.921Z,73.70
2019-06-20T05:25:29.527Z,73.90
2019-06-20T05:27:57.146Z,74.00
2019-06-20T05:30:24.745Z,73.90
2019-06-20T05:32:52.530Z,74.00
2019-06-20T05:35:20.131Z,74.10
2019-06-20T05:37:47.757Z,74.10
2019-06-20T05:40:15.580Z,73.80
2019-06-20T05:42:43.205Z,73.60
2019-06-20T05:45:10.807Z,73.60
2019-06-20T05:47:38.451Z,73.80
2019-06-20T05:50:06.089Z,73.90
2019-06-20T05:52:33.719Z,73.70
2019-06-20T05:55:01.302Z,73.70
2019-06-20T05:57:28.917Z,73.60
2019-06-20T05:59:56.518Z,73.50
2019-06-20T06:02:24.164Z,73.40
2019-06-20T06:04:51.779Z,73.30
2019-06-20T06:07:19.412Z,73.40
2019-06-20T06:09:47.023Z,73.40
2019-06-20T06:12:14.659Z,73.60
2019-06-20T06:14:42.653Z,72.70
2019-06-20T06:17:10.497Z,72.20
2019-06-20T06:19:38.069Z,71.80
2019-06-20T06:22:05.689Z,71.60
2019-06-20T06:24:33.338Z,71.40
2019-06-20T06:27:00.980Z,71.30
2019-06-20T06:29:28.595Z,71.50
2019-06-20T06:31:56.201Z,71.30
2019-06-20T06:34:23.903Z,71.10
2019-06-20T06:36:51.480Z,71.30
2019-06-20T06:39:19.100Z,71.30
2019-06-20T06:41:46.750Z,71.00
2019-06-20T06:44:14.381Z,71.00
2019-06-20T06:46:47.203Z,71.20
2019-06-20T06:49:11.495Z,71.10
2019-06-20T06:51:39.135Z,71.20
2019-06-20T06:54:06.801Z,71.20
2019-06-20T06:56:34.416Z,71.10
2019-06-20T06:59:02.045Z,71.30
2019-06-20T07:01:29.943Z,71.00
2019-06-20T07:03:57.578Z,71.10
2019-06-20T07:06:25.235Z,71.20
2019-06-20T07:08:52.865Z,71.30
2019-06-20T07:11:20.483Z,71.50
2019-06-20T07:13:48.101Z,71.70
2019-06-20T07:16:15.724Z,72.00
2019-06-20T07:18:43.401Z,71.60
2019-06-20T07:21:10.997Z,71.60
2019-06-20T07:23:38.650Z,71.70
2019-06-20T07:26:06.300Z,71.90
2019-06-20T07:28:33.920Z,71.80
2019-06-20T07:31:01.517Z,71.40
2019-06-20T07:33:29.291Z,71.30
2019-06-20T07:35:56.956Z,71.40
2019-06-20T07:38:24.589Z,71.00
2019-06-20T07:40:52.258Z,70.90
2019-06-20T07:43:19.921Z,70.90
2019-06-20T07:46:01.466Z,70.90
2019-06-20T07:48:17.030Z,71.50
2019-06-20T07:50:44.798Z,71.60
2019-06-20T07:53:12.445Z,69.50
2019-06-20T07:55:40.102Z,70.00
2019-06-20T07:58:09.508Z,69.70
2019-06-20T08:00:37.162Z,70.10
2019-06-20T08:03:04.754Z,70.30
2019-06-20T08:05:32.426Z,70.10
2019-06-20T08:08:00.100Z,70.40
2019-06-20T08:10:27.912Z,69.90
2019-06-20T08:12:55.528Z,69.80
2019-06-20T08:15:23.389Z,69.80
2019-06-20T08:17:51.048Z,70.00
2019-06-20T08:20:18.749Z,69.90
2019-06-20T08:22:46.394Z,69.80
2019-06-20T08:25:14.482Z,68.70
2019-06-20T08:27:51.398Z,68.50
2019-06-20T08:30:27.854Z,68.10
2019-06-20T08:32:59.242Z,68.70
2019-06-20T08:35:26.952Z,69.60
2019-06-20T08:37:57.304Z,68.30
2019-06-20T08:40:25.845Z,68.00
2019-06-20T08:42:55.318Z,67.80
2019-06-20T08:45:24.997Z,67.10
2019-06-20T08:47:52.649Z,66.90
2019-06-20T08:50:20.430Z,67.10
2019-06-20T08:52:48.068Z,66.40
2019-06-20T08:55:15.901Z,66.60
2019-06-20T08:57:43.556Z,66.60
2019-06-20T09:00:11.717Z,65.10
2019-06-20T09:02:39.337Z,65.80
2019-06-20T09:05:07.231Z,65.50
2019-06-20T09:07:35.123Z,65.60
2019-06-20T09:10:04.288Z,65.30
2019-06-20T09:12:31.963Z,65.60
2019-06-20T09:14:59.617Z,65.90
2019-06-20T09:17:27.264Z,66.70
2019-06-20T09:19:55.859Z,66.90
2019-06-20T09:22:23.597Z,65.90
2019-06-20T09:24:52.019Z,65.40
2019-06-20T09:27:20.709Z,65.20
2019-06-20T09:29:48.334Z,65.40
2019-06-20T09:32:15.937Z,65.10
2019-06-20T09:34:43.677Z,64.20
2019-06-20T09:37:12.516Z,63.40
2019-06-20T09:39:40.136Z,63.80
2019-06-20T09:42:07.773Z,63.90
2019-06-20T09:44:35.395Z,63.90
2019-06-20T09:47:03.105Z,63.90
2019-06-20T09:49:30.727Z,62.70
2019-06-20T09:51:59.407Z,62.40
2019-06-20T09:54:27.047Z,61.70
2019-06-20T09:56:57.969Z,61.30
2019-06-20T09:59:27.825Z,63.10
2019-06-20T10:01:56.390Z,63.60
2019-06-20T10:04:24.068Z,63.00
2019-06-20T10:06:52.317Z,63.40
2019-06-20T10:09:20.055Z,63.80
2019-06-20T10:11:47.964Z,63.90
2019-06-20T10:14:15.898Z,63.90
2019-06-20T10:16:47.440Z,63.00
2019-06-20T10:19:13.521Z,62.10
2019-06-20T10:21:41.240Z,62.00
2019-06-20T10:24:08.845Z,60.00
2019-06-20T10:26:37.788Z,60.80
2019-06-20T10:29:05.485Z,60.20
2019-06-20T10:31:33.128Z,60.20
2019-06-20T10:34:00.760Z,59.60
2019-06-20T10:36:28.510Z,59.60
2019-06-20T10:38:56.936Z,59.50
2019-06-20T10:41:24.646Z,59.70
2019-06-20T10:43:52.381Z,59.80
2019-06-20T10:46:20.023Z,59.60
2019-06-20T10:48:47.978Z,59.70
2019-06-20T10:51:45.798Z,59.90
2019-06-20T10:54:13.641Z,59.80
2019-06-20T10:56:42.281Z,60.20
2019-06-20T10:59:10.986Z,59.50
2019-06-20T11:01:39.877Z,59.20
2019-06-20T11:04:08.075Z,60.00
2019-06-20T11:06:35.696Z,59.60
2019-06-20T11:09:07.303Z,59.70
2019-06-20T11:11:34.893Z,60.10
2019-06-20T11:14:02.596Z,61.10
2019-06-20T11:16:30.249Z,60.50
2019-06-20T11:18:57.895Z,60.90
2019-06-20T11:21:25.524Z,59.60
2019-06-20T11:23:53.148Z,59.70
2019-06-20T11:26:20.813Z,60.20
2019-06-20T11:28:50.099Z,59.70
2019-06-20T11:31:17.788Z,59.30
2019-06-20T11:33:45.425Z,59.40
2019-06-20T11:36:13.165Z,59.00
2019-06-20T11:38:40.823Z,58.90
2019-06-20T11:41:08.500Z,59.20
2019-06-20T11:43:36.325Z,58.60
2019-06-20T11:46:04.073Z,58.70
2019-06-20T11:48:31.720Z,58.70
2019-06-20T11:50:59.336Z,58.50
2019-06-20T11:53:28.155Z,58.90
2019-06-20T11:55:55.834Z,60.00
2019-06-20T11:58:23.623Z,60.60
2019-06-20T12:01:03.079Z,60.80
2019-06-20T12:03:20.842Z,60.40
2019-06-20T12:05:49.700Z,60.20
2019-06-20T12:08:17.582Z,59.50
2019-06-20T12:10:45.279Z,59.40
2019-06-20T12:13:13.114Z,58.80
2019-06-20T12:15:41.658Z,58.80
2019-06-20T12:18:10.453Z,58.50
2019-06-20T12:20:39.592Z,59.20
2019-06-20T12:23:07.600Z,58.60
2019-06-20T12:25:35.315Z,58.60
2019-06-20T12:28:03.093Z,59.20
2019-06-20T12:30:31.498Z,58.80
2019-06-20T12:32:59.648Z,58.30
2019-06-20T12:35:27.303Z,58.10
2019-06-20T12:37:54.969Z,57.70
2019-06-20T12:40:23.131Z,59.00
2019-06-20T12:42:50.774Z,59.40
2019-06-20T12:45:20.518Z,59.30
2019-06-20T12:47:48.147Z,58.60
2019-06-20T12:50:16.275Z,59.00
2019-06-20T12:52:45.448Z,58.10
2019-06-20T12:55:13.714Z,57.90
2019-06-20T12:57:42.436Z,57.90
2019-06-20T13:00:13.866Z,57.80
2019-06-20T13:02:42.504Z,57.10
2019-06-20T13:05:11.475Z,57.40
2019-06-20T13:07:40.494Z,57.00
2019-06-20T13:10:09.124Z,56.30
2019-06-20T13:12:40.651Z,56.50
2019-06-20T13:15:09.990Z,57.00
2019-06-20T13:17:39.253Z,57.10
2019-06-20T13:20:07.685Z,57.40
2019-06-20T13:22:35.325Z,56.40
2019-06-20T13:25:04.472Z,56.90
2019-06-20T13:27:32.120Z,57.40
2019-06-20T13:29:59.776Z,57.10
2019-06-20T13:32:27.404Z,56.50
2019-06-20T13:34:56.922Z,56.40
2019-06-20T13:37:25.563Z,56.60
2019-06-20T13:39:53.176Z,57.40
2019-06-20T13:42:20.821Z,57.40
2019-06-20T13:44:49.524Z,57.20
2019-06-20T13:47:17.138Z,57.20
2019-06-20T13:49:45.833Z,56.40
2019-06-20T13:52:13.704Z,56.80
2019-06-20T13:54:43.027Z,56.80
2019-06-20T13:57:10.796Z,56.70
2019-06-20T13:59:38.529Z,57.20
2019-06-20T14:02:07.116Z,56.30
2019-06-20T14:04:35.039Z,56.30
2019-06-20T14:07:02.675Z,56.60
2019-06-20T14:09:32.478Z,56.60
2019-06-20T14:12:01.894Z,56.30
2019-06-20T14:14:29.634Z,57.10
2019-06-20T14:16:57.299Z,56.90
2019-06-20T14:19:24.984Z,56.50
2019-06-20T14:21:52.658Z,56.10
2019-06-20T14:24:20.303Z,56.90
2019-06-20T14:26:48.197Z,57.00
2019-06-20T14:29:16.048Z,55.50
2019-06-20T14:31:44.368Z,54.90
2019-06-20T14:34:13.257Z,56.60
2019-06-20T14:36:40.978Z,56.60
2019-06-20T14:39:08.670Z,57.10
2019-06-20T14:41:36.301Z,56.60
2019-06-20T14:44:04.002Z,56.50
2019-06-20T14:46:31.634Z,55.90
2019-06-20T14:48:59.312Z,56.00
2019-06-20T14:51:26.962Z,56.30
2019-06-20T14:53:54.624Z,55.60
2019-06-20T14:56:22.240Z,55.20
2019-06-20T14:58:51.442Z,54.40
2019-06-20T15:01:19.318Z,54.90
2019-06-20T15:03:47.416Z,55.60
2019-06-20T15:06:16.486Z,55.90
2019-06-20T15:08:45.375Z,54.80
2019-06-20T15:11:13.486Z,54.90
2019-06-20T15:13:41.132Z,55.10
2019-06-20T15:16:08.866Z,54.80
2019-06-20T15:18:37.875Z,53.60
2019-06-20T15:21:05.582Z,53.00
2019-06-20T15:23:33.380Z,53.30
2019-06-20T15:26:00.996Z,54.00
2019-06-20T15:28:29.871Z,54.40
2019-06-20T15:30:57.545Z,54.00
2019-06-20T15:33:25.165Z,54.10
2019-06-20T15:35:53.522Z,54.10
2019-06-20T15:38:22.307Z,54.50
2019-06-20T15:40:51.425Z,53.90
2019-06-20T15:43:19.385Z,53.70
2019-06-20T15:45:48.357Z,54.00
2019-06-20T15:48:16.504Z,53.60
2019-06-20T15:50:44.155Z,53.60
2019-06-20T15:53:11.780Z,53.00
2019-06-20T15:55:58.890Z,54.10
2019-06-20T15:58:26.542Z,55.00
2019-06-20T16:00:54.186Z,55.60
2019-06-20T16:03:21.805Z,55.20
2019-06-20T16:05:49.458Z,54.40
2019-06-20T16:08:17.091Z,54.30
2019-06-20T16:10:44.752Z,54.80
2019-06-20T16:13:12.386Z,54.30
2019-06-20T16:15:40.142Z,54.40
2019-06-20T16:18:07.778Z,54.80
2019-06-20T16:20:35.425Z,54.80
2019-06-20T16:23:03.094Z,55.00
2019-06-20T16:25:30.843Z,54.30
2019-06-20T16:27:58.468Z,54.70
2019-06-20T16:30:26.334Z,55.00
2019-06-20T16:32:53.959Z,55.20
2019-06-20T16:35:21.595Z,55.40
2019-06-20T16:37:49.263Z,54.80
2019-06-20T16:40:23.977Z,54.40
2019-06-20T16:42:51.727Z,55.00
2019-06-20T16:45:19.388Z,55.20
2019-06-20T16:47:47.066Z,55.20
2019-06-20T16:50:15.688Z,55.10
2019-06-20T16:52:43.294Z,55.70
2019-06-20T16:55:11.391Z,54.00
2019-06-20T16:57:39.027Z,54.30
2019-06-20T17:00:07.382Z,53.70
2019-06-20T17:02:35.133Z,54.70
2019-06-20T17:05:02.793Z,55.20
2019-06-20T17:07:30.453Z,56.10
2019-06-20T17:09:58.084Z,56.90
2019-06-20T17:12:25.727Z,57.80
2019-06-20T17:14:53.437Z,58.00
2019-06-20T17:17:21.104Z,57.90
2019-06-20T17:19:48.716Z,58.20
2019-06-20T17:22:16.385Z,58.20
2019-06-20T17:24:43.983Z,58.80
2019-06-20T17:27:11.691Z,58.80
2019-06-20T17:29:39.293Z,59.10
2019-06-20T17:32:08.074Z,59.60
2019-06-20T17:34:35.699Z,60.00
2019-06-20T17:37:03.294Z,60.40
2019-06-20T17:39:30.972Z,60.20
2019-06-20T17:41:58.915Z,60.60
2019-06-20T17:44:27.541Z,60.60
2019-06-20T17:46:55.266Z,60.70
2019-06-20T17:49:23.035Z,61.00
2019-06-20T17:51:50.662Z,61.40
2019-06-20T17:54:18.454Z,61.70
2019-06-20T17:56:46.144Z,62.10
2019-06-20T17:59:13.783Z,62.00
2019-06-20T18:01:41.406Z,62.00
2019-06-20T18:04:13.586Z,61.60
2019-06-20T18:06:38.538Z,61.70
2019-06-20T18:09:06.389Z,61.70
2019-06-20T18:11:35.984Z,61.90
2019-06-20T18:14:03.680Z,62.20
2019-06-20T18:16:31.308Z,62.00
2019-06-20T18:18:58.990Z,61.90
2019-06-20T18:21:26.717Z,62.50
2019-06-20T18:23:54.399Z,62.90
2019-06-20T18:26:22.073Z,63.30
2019-06-20T18:28:49.782Z,63.80
2019-06-20T18:31:17.480Z,64.30
2019-06-20T18:33:45.125Z,64.60
2019-06-20T18:36:12.773Z,65.30
2019-06-20T18:38:40.435Z,65.70
2019-06-20T18:41:08.204Z,66.60
2019-06-20T18:43:35.833Z,67.00
2019-06-20T18:46:03.573Z,67.40
2019-06-20T18:48:31.243Z,67.70
2019-06-20T18:50:58.939Z,67.60
2019-06-20T18:53:26.631Z,67.40
2019-06-20T18:55:54.248Z,67.70
2019-06-20T18:58:21.922Z,67.90
2019-06-20T19:00:49.585Z,68.20
2019-06-20T19:03:17.543Z,68.40
2019-06-20T19:05:45.397Z,68.60
2019-06-20T19:08:13.028Z,68.50
2019-06-20T19:10:40.709Z,68.40
2019-06-20T19:13:08.424Z,68.40
2019-06-20T19:15:37.218Z,68.10
2019-06-20T19:18:04.960Z,68.20
2019-06-20T19:20:32.742Z,68.20
2019-06-20T19:23:00.501Z,68.10
2019-06-20T19:25:28.189Z,68.00
2019-06-20T19:27:55.845Z,67.80
2019-06-20T19:30:33.358Z,67.30
2019-06-20T19:33:02.145Z,67.10
2019-06-20T19:35:29.862Z,66.50
2019-06-20T19:37:57.505Z,67.00
2019-06-20T19:40:29.183Z,66.50
2019-06-20T19:42:57.522Z,65.90
2019-06-20T19:45:25.574Z,65.60
2019-06-20T19:47:53.240Z,65.10
2019-06-20T19:50:20.983Z,65.30
2019-06-20T19:52:48.644Z,65.20
2019-06-20T19:55:16.548Z,64.90
2019-06-20T19:57:44.247Z,64.50
2019-06-20T20:00:12.392Z,64.20
2019-06-20T20:02:40.147Z,64.20
2019-06-20T20:05:18.520Z,64.30
2019-06-20T20:07:37.993Z,63.80
2019-06-20T20:10:06.123Z,63.50
2019-06-20T20:12:33.758Z,63.50
2019-06-20T20:15:01.657Z,63.50
2019-06-20T20:17:30.651Z,63.90
2019-06-20T20:19:58.374Z,64.00
2019-06-20T20:22:26.036Z,64.20
2019-06-20T20:24:53.772Z,65.20
2019-06-20T20:27:21.482Z,64.70
2019-06-20T20:29:49.158Z,65.30
2019-06-20T20:32:16.789Z,65.80
2019-06-20T20:34:44.437Z,66.30
2019-06-20T20:37:12.090Z,66.80
2019-06-20T20:39:39.755Z,67.10
2019-06-20T20:42:07.381Z,67.50
2019-06-20T20:44:35.058Z,67.70
2019-06-20T20:47:02.705Z,67.90
2019-06-20T20:49:30.367Z,67.90
2019-06-20T20:51:57.992Z,68.10
2019-06-20T20:54:25.623Z,68.10
2019-06-20T20:56:53.278Z,68.30
2019-06-20T20:59:20.985Z,68.40
2019-06-20T21:01:48.714Z,68.40
2019-06-20T21:04:16.405Z,68.50
2019-06-20T21:06:44.043Z,68.50
2019-06-20T21:09:11.670Z,68.60
2019-06-20T21:11:39.444Z,69.50
2019-06-20T21:14:07.112Z,68.70
2019-06-20T21:16:34.780Z,68.60
2019-06-20T21:19:02.401Z,68.80
2019-06-20T21:21:30.046Z,68.80
2019-06-20T21:23:57.722Z,68.80
2019-06-20T21:26:25.364Z,68.70
2019-06-20T21:28:53.043Z,68.70
2019-06-20T21:31:20.738Z,68.50
2019-06-20T21:33:48.478Z,68.40
2019-06-20T21:36:16.062Z,68.40
2019-06-20T21:38:43.714Z,68.30
2019-06-20T21:41:11.369Z,68.30
2019-06-20T21:43:38.996Z,68.40
2019-06-20T21:46:07.016Z,68.30
2019-06-20T21:48:34.748Z,68.30
2019-06-20T21:51:02.380Z,68.90
2019-06-20T21:53:30.019Z,67.90
2019-06-20T21:55:57.635Z,68.00
2019-06-20T21:58:25.365Z,68.10
2019-06-20T22:00:56.417Z,68.10
2019-06-20T22:03:24.231Z,67.90
2019-06-20T22:05:52.875Z,67.80
2019-06-20T22:08:20.485Z,67.40
2019-06-20T22:10:48.261Z,67.20
2019-06-20T22:13:15.908Z,67.20
2019-06-20T22:15:43.545Z,67.10
2019-06-20T22:18:11.203Z,66.50
2019-06-20T22:20:38.850Z,66.10
2019-06-20T22:23:06.476Z,65.80
2019-06-20T22:25:34.163Z,65.50
2019-06-20T22:28:01.948Z,65.20
2019-06-20T22:30:40.576Z,64.60
2019-06-20T22:33:08.255Z,64.40
2019-06-20T22:35:35.870Z,64.50
2019-06-20T22:38:03.506Z,63.90
2019-06-20T22:40:31.112Z,64.00
2019-06-20T22:42:58.777Z,63.80
2019-06-20T22:45:26.529Z,64.00
2019-06-20T22:47:54.162Z,64.20
2019-06-20T22:50:21.819Z,64.40
2019-06-20T22:52:49.489Z,64.50
2019-06-20T22:55:17.121Z,64.50
2019-06-20T22:57:44.774Z,64.50
2019-06-20T23:00:12.912Z,64.50
2019-06-20T23:02:40.592Z,64.60
2019-06-20T23:05:08.810Z,64.50
2019-06-20T23:07:36.419Z,64.60
2019-06-20T23:10:10.573Z,64.30
2019-06-20T23:12:34.008Z,63.40
2019-06-20T23:15:01.675Z,63.40
2019-06-20T23:17:29.271Z,63.30
2019-06-20T23:19:56.865Z,63.30
2019-06-20T23:22:25.682Z,63.10
2019-06-20T23:24:53.294Z,63.00
2019-06-20T23:27:20.932Z,63.20
2019-06-20T23:29:48.577Z,63.30
2019-06-20T23:32:16.241Z,63.30
2019-06-20T23:34:43.944Z,63.20
2019-06-20T23:37:13.080Z,63.30
2019-06-20T23:39:42.156Z,63.40
2019-06-20T23:42:10.058Z,63.30
2019-06-20T23:44:37.668Z,63.20
2019-06-20T23:47:05.352Z,63.20
2019-06-20T23:49:33.053Z,63.10
2019-06-20T23:52:05.934Z,63.20
2019-06-20T23:54:33.542Z,63.30
2019-06-20T23:57:01.163Z,63.00
2019-06-20T23:59:28.775Z,63.20
